createdAt,value
2022-10-17T00:00:25.670Z,4.57
2022-10-17T00:02:27.182Z,4.82
2022-10-17T00:04:28.702Z,4.53
2022-10-17T00:06:30.244Z,4.38
2022-10-17T00:08:31.882Z,12.45
2022-10-17T00:10:33.391Z,12.77
2022-10-17T00:12:35.072Z,4.00
2022-10-17T00:14:36.851Z,6.22
2022-10-17T00:16:38.347Z,3.90
2022-10-17T00:18:40.067Z,5.55
2022-10-17T00:20:41.541Z,11.13
2022-10-17T00:22:43.226Z,7.20
2022-10-17T00:24:44.730Z,4.82
2022-10-17T00:26:46.177Z,9.85
2022-10-17T00:28:49.390Z,4.82
2022-10-17T00:31:02.367Z,4.35
2022-10-17T00:33:03.964Z,4.03
2022-10-17T00:35:05.717Z,4.10
2022-10-17T00:37:07.238Z,3.33
2022-10-17T00:39:09.187Z,5.25
2022-10-17T00:41:13.381Z,3.70
2022-10-17T00:43:18.423Z,7.95
2022-10-17T00:45:30.863Z,5.38
2022-10-17T00:47:33.068Z,7.10
2022-10-17T00:49:36.177Z,4.28
2022-10-17T00:51:43.911Z,5.70
2022-10-17T00:53:45.675Z,4.05
2022-10-17T00:55:52.333Z,4.03
2022-10-17T00:57:54.034Z,13.82
2022-10-17T00:59:57.351Z,5.07
2022-10-17T01:02:08.891Z,8.63
2022-10-17T01:04:10.441Z,3.72
2022-10-17T01:06:11.926Z,3.50
2022-10-17T01:08:13.705Z,8.05
2022-10-17T01:10:15.338Z,8.05
2022-10-17T01:12:32.921Z,6.05
2022-10-17T01:14:43.313Z,3.50
2022-10-17T01:16:52.114Z,5.40
2022-10-17T01:19:20.364Z,3.65
2022-10-17T01:21:45.180Z,6.38
2022-10-17T01:24:18.971Z,5.20
2022-10-17T01:26:57.591Z,5.00
2022-10-17T01:29:12.174Z,8.05
2022-10-17T01:31:14.972Z,3.15
2022-10-17T01:33:46.843Z,5.20
2022-10-17T01:35:54.066Z,3.63
2022-10-17T01:38:14.758Z,3.67
2022-10-17T01:40:22.338Z,4.68
2022-10-17T01:42:33.002Z,7.28
2022-10-17T01:44:40.687Z,3.85
2022-10-17T01:46:45.401Z,4.72
2022-10-17T01:48:46.958Z,3.75
2022-10-17T01:50:54.870Z,3.25
2022-10-17T01:53:10.941Z,3.58
2022-10-17T01:55:17.139Z,3.70
2022-10-17T01:57:27.382Z,3.78
2022-10-17T01:59:35.017Z,3.08
2022-10-17T02:01:37.134Z,4.57
2022-10-17T02:03:40.622Z,10.60
2022-10-17T02:05:42.909Z,8.55
2022-10-17T02:07:44.422Z,5.18
2022-10-17T02:09:45.926Z,4.13
2022-10-17T02:11:55.117Z,6.80
2022-10-17T02:14:02.755Z,10.15
2022-10-17T02:16:41.975Z,10.18
2022-10-17T02:18:52.457Z,6.70
2022-10-17T02:20:59.614Z,4.38
2022-10-17T02:23:47.327Z,4.40
2022-10-17T02:26:07.023Z,5.78
2022-10-17T02:28:31.866Z,3.13
2022-10-17T02:30:45.172Z,4.10
2022-10-17T02:33:00.196Z,5.30
2022-10-17T02:35:03.900Z,7.13
2022-10-17T02:37:07.633Z,3.20
2022-10-17T02:39:10.178Z,12.38
2022-10-17T02:41:15.449Z,6.03
2022-10-17T02:43:16.990Z,7.05
2022-10-17T02:45:19.193Z,6.28
2022-10-17T02:47:28.118Z,4.00
2022-10-17T02:49:33.877Z,3.30
2022-10-17T02:51:57.941Z,2.90
2022-10-17T02:54:14.235Z,16.08
2022-10-17T02:56:19.091Z,3.00
2022-10-17T02:58:27.001Z,3.53
2022-10-17T03:00:28.969Z,3.35
2022-10-17T03:02:45.456Z,6.57
2022-10-17T03:04:47.564Z,5.65
2022-10-17T03:06:49.837Z,2.80
2022-10-17T03:08:51.316Z,4.05
2022-10-17T03:10:52.795Z,4.53
2022-10-17T03:12:54.286Z,5.88
2022-10-17T03:14:55.882Z,7.82
2022-10-17T03:16:57.417Z,7.50
2022-10-17T03:18:58.941Z,2.70
2022-10-17T03:21:00.421Z,3.80
2022-10-17T03:23:01.930Z,2.97
2022-10-17T03:25:03.629Z,5.88
2022-10-17T03:27:05.172Z,5.88
2022-10-17T03:29:06.665Z,8.38
2022-10-17T03:31:15.669Z,3.80
2022-10-17T03:33:17.160Z,3.22
2022-10-17T03:35:18.661Z,5.07
2022-10-17T03:37:20.138Z,8.65
2022-10-17T03:39:21.604Z,7.97
2022-10-17T03:41:23.193Z,5.30
2022-10-17T03:43:24.653Z,3.65
2022-10-17T03:45:26.113Z,3.38
2022-10-17T03:47:29.350Z,5.07
2022-10-17T03:49:31.108Z,3.17
2022-10-17T03:51:36.008Z,3.25
2022-10-17T03:53:37.502Z,5.15
2022-10-17T03:55:38.989Z,5.03
2022-10-17T03:57:42.234Z,5.18
2022-10-17T03:59:46.245Z,4.97
2022-10-17T04:01:47.799Z,5.20
2022-10-17T04:03:53.644Z,11.43
2022-10-17T04:05:59.200Z,15.38
2022-10-17T04:08:03.917Z,5.00
2022-10-17T04:10:06.847Z,3.55
2022-10-17T04:12:08.458Z,11.55
2022-10-17T04:14:10.717Z,3.15
2022-10-17T04:16:14.896Z,2.78
2022-10-17T04:18:16.619Z,7.63
2022-10-17T04:20:18.161Z,3.80
2022-10-17T04:22:19.714Z,6.30
2022-10-17T04:24:21.404Z,3.70
2022-10-17T04:26:23.399Z,6.68
2022-10-17T04:28:26.102Z,4.45
2022-10-17T04:30:27.711Z,4.05
2022-10-17T04:32:29.510Z,2.78
2022-10-17T04:34:31.104Z,7.53
2022-10-17T04:36:32.626Z,8.13
2022-10-17T04:38:34.792Z,6.68
2022-10-17T04:40:36.508Z,3.10
2022-10-17T04:42:37.974Z,8.65
2022-10-17T04:44:39.500Z,7.50
2022-10-17T04:46:40.981Z,16.92
2022-10-17T04:48:42.838Z,6.60
2022-10-17T04:50:56.627Z,5.07
2022-10-17T04:52:58.102Z,6.20
2022-10-17T04:54:59.613Z,7.65
2022-10-17T04:57:01.112Z,7.13
2022-10-17T04:59:02.633Z,7.03
2022-10-17T05:01:12.626Z,7.57
2022-10-17T05:03:14.404Z,6.47
2022-10-17T05:05:15.923Z,6.32
2022-10-17T05:07:17.394Z,6.68
2022-10-17T05:09:18.948Z,8.82
2022-10-17T05:11:25.506Z,5.95
2022-10-17T05:13:26.995Z,5.90
2022-10-17T05:15:28.523Z,10.55
2022-10-17T05:17:30.002Z,5.50
2022-10-17T05:19:31.465Z,5.30
2022-10-17T05:23:39.556Z,6.38
2022-10-17T05:25:41.043Z,4.60
2022-10-17T05:27:42.490Z,4.13
2022-10-17T05:29:44.135Z,7.65
2022-10-17T05:31:45.624Z,5.80
2022-10-17T05:33:47.127Z,4.93
2022-10-17T05:35:48.606Z,5.25
2022-10-17T05:37:50.154Z,5.10
2022-10-17T05:39:51.808Z,9.98
2022-10-17T05:41:53.309Z,5.65
2022-10-17T05:43:54.800Z,6.38
2022-10-17T05:45:56.417Z,5.55
2022-10-17T05:47:57.864Z,7.93
2022-10-17T05:49:59.365Z,5.88
2022-10-17T05:52:01.143Z,5.72
2022-10-17T05:54:05.789Z,8.73
2022-10-17T05:56:09.167Z,4.18
2022-10-17T05:58:17.686Z,4.85
2022-10-17T06:00:24.073Z,5.82
2022-10-17T06:02:26.943Z,4.03
2022-10-17T06:04:28.799Z,5.05
2022-10-17T06:06:30.300Z,4.53
2022-10-17T06:08:31.934Z,4.50
2022-10-17T06:10:33.504Z,5.18
2022-10-17T06:12:35.120Z,11.20
2022-10-17T06:14:36.594Z,5.05
2022-10-17T06:16:38.052Z,6.00
2022-10-17T06:18:39.603Z,6.93
2022-10-17T06:20:45.295Z,5.20
2022-10-17T06:22:47.668Z,4.28
2022-10-17T06:24:49.256Z,5.97
2022-10-17T06:26:51.188Z,6.85
2022-10-17T06:28:55.336Z,11.15
2022-10-17T06:30:58.907Z,19.60
2022-10-17T06:33:01.139Z,24.05
2022-10-17T06:35:02.621Z,34.13
2022-10-17T06:37:04.098Z,30.08
2022-10-17T06:39:05.554Z,31.95
2022-10-17T06:41:13.724Z,45.58
2022-10-17T06:43:15.248Z,29.45
2022-10-17T06:45:16.809Z,37.17
2022-10-17T06:47:20.017Z,28.05
2022-10-17T06:49:21.761Z,25.98
2022-10-17T06:51:23.271Z,16.48
2022-10-17T06:53:25.074Z,20.95
2022-10-17T06:55:26.642Z,12.30
2022-10-17T06:57:28.415Z,20.15
2022-10-17T06:59:30.421Z,10.48
2022-10-17T07:01:32.492Z,9.57
2022-10-17T07:03:34.276Z,13.20
2022-10-17T07:05:35.771Z,8.60
2022-10-17T07:07:40.116Z,8.00
2022-10-17T07:09:44.798Z,7.95
2022-10-17T07:11:46.279Z,8.48
2022-10-17T07:13:47.912Z,9.90
2022-10-17T07:15:49.464Z,6.00
2022-10-17T07:17:51.099Z,12.35
2022-10-17T07:19:52.578Z,10.35
2022-10-17T07:21:54.467Z,10.65
2022-10-17T07:23:55.912Z,8.05
2022-10-17T07:26:08.548Z,9.25
2022-10-17T07:28:10.034Z,11.25
2022-10-17T07:30:11.823Z,16.75
2022-10-17T07:32:13.308Z,6.60
2022-10-17T07:34:14.935Z,5.05
2022-10-17T07:36:17.599Z,4.80
2022-10-17T07:38:19.318Z,3.88
2022-10-17T07:40:20.900Z,6.18
2022-10-17T07:42:22.928Z,2.92
2022-10-17T07:44:24.434Z,4.18
2022-10-17T07:46:25.892Z,2.53
2022-10-17T07:48:27.775Z,2.53
2022-10-17T07:50:29.489Z,2.10
2022-10-17T07:52:31.413Z,5.25
2022-10-17T07:54:33.290Z,5.82
2022-10-17T07:56:34.811Z,13.82
2022-10-17T07:58:37.468Z,6.78
2022-10-17T08:00:39.056Z,8.45
2022-10-17T08:02:40.685Z,4.05
2022-10-17T08:04:42.190Z,6.05
2022-10-17T08:06:43.835Z,1.90
2022-10-17T08:08:45.420Z,2.10
2022-10-17T08:10:46.996Z,2.88
2022-10-17T08:12:48.520Z,2.50
2022-10-17T08:14:50.249Z,4.07
2022-10-17T08:16:54.916Z,3.30
2022-10-17T08:18:56.546Z,3.78
2022-10-17T08:21:02.528Z,1.60
2022-10-17T08:23:04.059Z,2.95
2022-10-17T08:25:06.338Z,6.90
2022-10-17T08:27:11.463Z,5.30
2022-10-17T08:29:14.342Z,1.83
2022-10-17T08:31:18.952Z,5.30
2022-10-17T08:33:20.412Z,3.40
2022-10-17T08:35:22.209Z,1.48
2022-10-17T08:37:24.021Z,1.55
2022-10-17T08:39:25.511Z,2.78
2022-10-17T08:41:53.507Z,2.65
2022-10-17T08:44:14.288Z,2.65
2022-10-17T08:48:24.914Z,1.98
2022-10-17T08:50:41.478Z,1.58
2022-10-17T08:52:48.126Z,1.83
2022-10-17T08:54:51.780Z,1.58
2022-10-17T08:56:54.386Z,10.65
2022-10-17T08:58:55.906Z,2.67
2022-10-17T09:01:54.431Z,5.63
2022-10-17T09:04:21.724Z,1.45
2022-10-17T09:06:30.186Z,2.03
2022-10-17T09:09:00.229Z,1.83
2022-10-17T09:11:37.142Z,4.10
2022-10-17T09:14:01.468Z,3.35
2022-10-17T09:16:11.632Z,1.77
2022-10-17T09:18:26.163Z,1.65
2022-10-17T09:20:33.508Z,1.50
2022-10-17T09:22:41.378Z,2.33
2022-10-17T09:24:46.674Z,3.13
2022-10-17T09:26:48.269Z,2.67
2022-10-17T09:28:54.537Z,3.25
2022-10-17T09:31:06.437Z,3.17
2022-10-17T09:33:34.430Z,2.10
2022-10-17T09:35:42.017Z,1.50
2022-10-17T09:37:44.871Z,1.80
2022-10-17T09:39:46.540Z,2.45
2022-10-17T09:41:53.773Z,5.20
2022-10-17T09:43:57.271Z,1.45
2022-10-17T09:46:17.165Z,1.35
2022-10-17T09:48:33.625Z,2.40
2022-10-17T09:50:35.238Z,1.58
2022-10-17T09:52:41.028Z,5.20
2022-10-17T09:54:54.485Z,1.85
2022-10-17T09:56:58.821Z,1.55
2022-10-17T09:59:00.306Z,2.80
2022-10-17T10:01:41.261Z,2.08
2022-10-17T10:03:42.731Z,1.52
2022-10-17T10:06:13.534Z,3.13
2022-10-17T10:08:17.593Z,3.53
2022-10-17T10:10:28.116Z,4.00
2022-10-17T10:12:39.045Z,2.15
2022-10-17T10:14:40.942Z,2.08
2022-10-17T10:16:43.429Z,1.63
2022-10-17T10:18:47.429Z,2.28
2022-10-17T10:21:14.452Z,1.58
2022-10-17T10:23:21.402Z,4.38
2022-10-17T10:25:22.902Z,1.30
2022-10-17T10:27:29.286Z,2.25
2022-10-17T10:29:34.937Z,1.67
2022-10-17T10:31:40.112Z,4.55
2022-10-17T10:33:45.915Z,2.17
2022-10-17T10:36:07.761Z,1.23
2022-10-17T10:38:14.667Z,7.68
2022-10-17T10:40:18.542Z,2.63
2022-10-17T10:42:19.980Z,1.48
2022-10-17T10:44:25.007Z,1.42
2022-10-17T10:46:27.918Z,7.38
2022-10-17T10:48:36.101Z,3.13
2022-10-17T10:50:45.415Z,1.63
2022-10-17T10:53:24.915Z,2.78
2022-10-17T10:55:31.166Z,11.10
2022-10-17T10:57:35.247Z,3.95
2022-10-17T10:59:58.019Z,1.58
2022-10-17T11:02:02.308Z,2.63
2022-10-17T11:04:44.763Z,2.63
2022-10-17T11:06:47.842Z,4.03
2022-10-17T11:08:57.047Z,2.88
2022-10-17T11:11:07.675Z,2.75
2022-10-17T11:13:23.136Z,1.30
2022-10-17T11:15:30.465Z,2.85
2022-10-17T11:17:40.485Z,3.05
2022-10-17T11:19:44.666Z,2.67
2022-10-17T11:22:12.887Z,2.00
2022-10-17T11:24:59.612Z,5.75
2022-10-17T11:30:17.540Z,2.63
2022-10-17T11:32:40.570Z,2.30
2022-10-17T11:34:47.621Z,4.43
2022-10-17T11:36:51.446Z,2.83
2022-10-17T11:38:57.012Z,4.53
2022-10-17T11:40:59.799Z,9.48
2022-10-17T11:43:06.952Z,2.67
2022-10-17T11:45:18.320Z,5.97
2022-10-17T11:47:34.800Z,5.35
2022-10-17T11:49:41.068Z,2.75
2022-10-17T11:52:01.631Z,6.47
2022-10-17T11:54:34.610Z,3.95
2022-10-17T11:56:49.602Z,3.33
2022-10-17T11:59:09.598Z,2.53
2022-10-17T12:01:22.793Z,4.22
2022-10-17T12:04:01.916Z,6.70
2022-10-17T12:06:46.578Z,4.38
2022-10-17T12:09:06.621Z,3.35
2022-10-17T12:11:34.681Z,3.30
2022-10-17T12:13:41.621Z,5.70
2022-10-17T12:15:46.571Z,10.95
2022-10-17T12:18:03.083Z,4.90
2022-10-17T12:20:32.098Z,3.03
2022-10-17T12:22:33.588Z,3.22
2022-10-17T12:24:43.369Z,3.42
2022-10-17T12:26:44.828Z,4.85
2022-10-17T12:28:47.441Z,3.38
2022-10-17T12:31:09.993Z,7.00
2022-10-17T12:33:26.744Z,4.47
2022-10-17T12:35:29.442Z,4.50
2022-10-17T12:38:00.857Z,2.63
2022-10-17T12:40:02.332Z,8.35
2022-10-17T12:42:03.871Z,5.53
2022-10-17T12:44:14.990Z,2.63
2022-10-17T12:46:51.353Z,2.20
2022-10-17T12:49:03.904Z,2.25
2022-10-17T12:51:37.880Z,2.95
2022-10-17T12:54:00.105Z,2.25
2022-10-17T12:56:07.985Z,3.72
2022-10-17T12:58:15.038Z,3.03
2022-10-17T13:00:23.549Z,2.70
2022-10-17T13:02:27.610Z,4.18
2022-10-17T13:04:30.057Z,5.05
2022-10-17T13:06:37.711Z,3.85
2022-10-17T13:08:41.674Z,3.63
2022-10-17T13:10:46.339Z,2.97
2022-10-17T13:12:51.239Z,2.42
2022-10-17T13:14:54.347Z,2.63
2022-10-17T13:17:00.647Z,3.45
2022-10-17T13:19:11.415Z,6.05
2022-10-17T13:21:16.486Z,2.60
2022-10-17T13:23:25.178Z,4.00
2022-10-17T13:25:28.061Z,2.45
2022-10-17T13:27:31.382Z,1.95
2022-10-17T13:29:33.304Z,2.88
2022-10-17T13:31:37.209Z,4.22
2022-10-17T13:33:41.066Z,1.80
2022-10-17T13:35:59.416Z,5.25
2022-10-17T13:38:03.305Z,3.40
2022-10-17T13:40:17.475Z,5.35
2022-10-17T13:42:29.935Z,6.32
2022-10-17T13:44:35.369Z,4.68
2022-10-17T13:46:39.827Z,4.40
2022-10-17T13:48:43.473Z,4.47
2022-10-17T13:50:48.173Z,4.10
2022-10-17T13:52:49.997Z,2.78
2022-10-17T13:54:53.926Z,3.17
2022-10-17T13:56:57.466Z,10.00
2022-10-17T13:59:05.138Z,3.42
2022-10-17T14:01:08.235Z,6.55
2022-10-17T14:03:09.994Z,2.33
2022-10-17T14:05:19.036Z,1.95
2022-10-17T14:07:58.293Z,5.38
2022-10-17T14:09:56.070Z,5.43
2022-10-17T14:12:06.326Z,2.95
2022-10-17T14:14:17.730Z,4.00
2022-10-17T14:16:19.711Z,5.90
2022-10-17T14:18:25.335Z,4.05
2022-10-17T14:23:17.632Z,2.97
2022-10-17T14:25:35.851Z,2.80
2022-10-17T14:28:04.056Z,5.85
2022-10-17T14:30:07.965Z,4.32
2022-10-17T14:32:13.164Z,3.92
2022-10-17T14:34:24.449Z,6.47
2022-10-17T14:36:40.131Z,6.28
2022-10-17T14:38:47.172Z,4.95
2022-10-17T14:40:51.287Z,3.13
2022-10-17T14:42:54.819Z,9.18
2022-10-17T14:45:03.343Z,5.55
2022-10-17T14:47:30.844Z,7.25
2022-10-17T14:49:33.396Z,4.60
2022-10-17T14:51:44.847Z,4.25
2022-10-17T14:54:05.483Z,12.48
2022-10-17T14:56:25.013Z,6.22
2022-10-17T14:58:28.714Z,3.88
2022-10-17T15:00:30.409Z,5.75
2022-10-17T15:02:32.191Z,2.88
2022-10-17T15:04:33.910Z,4.28
2022-10-17T15:06:35.441Z,3.45
2022-10-17T15:08:36.957Z,5.10
2022-10-17T15:10:41.933Z,3.03
2022-10-17T15:12:51.999Z,4.82
2022-10-17T15:15:00.591Z,5.57
2022-10-17T15:17:02.075Z,5.28
2022-10-17T15:19:03.636Z,13.60
2022-10-17T15:21:25.592Z,9.27
2022-10-17T15:23:28.023Z,4.88
2022-10-17T15:25:31.392Z,9.02
2022-10-17T15:27:33.096Z,11.48
2022-10-17T15:29:34.737Z,6.53
2022-10-17T15:31:36.217Z,4.18
2022-10-17T15:33:37.755Z,4.45
2022-10-17T15:35:39.202Z,3.70
2022-10-17T15:37:40.786Z,3.13
2022-10-17T15:39:42.323Z,5.10
2022-10-17T15:41:44.143Z,5.40
2022-10-17T15:43:47.667Z,3.53
2022-10-17T15:45:49.135Z,7.10
2022-10-17T15:47:56.032Z,6.72
2022-10-17T15:49:57.609Z,4.18
2022-10-17T15:51:59.247Z,5.75
2022-10-17T15:54:04.849Z,4.35
2022-10-17T15:56:07.329Z,5.70
2022-10-17T15:58:14.628Z,3.83
2022-10-17T16:00:21.321Z,10.05
2022-10-17T16:02:23.812Z,6.68
2022-10-17T16:04:27.308Z,9.00
2022-10-17T16:06:29.092Z,7.00
2022-10-17T16:08:30.586Z,11.30
2022-10-17T16:10:32.248Z,7.85
2022-10-17T16:12:37.895Z,3.38
2022-10-17T16:14:39.644Z,4.70
2022-10-17T16:16:41.683Z,3.85
2022-10-17T16:18:43.170Z,4.20
2022-10-17T16:20:44.698Z,6.68
2022-10-17T16:22:46.791Z,2.72
2022-10-17T16:24:48.311Z,6.07
2022-10-17T16:26:50.293Z,4.88
2022-10-17T16:28:51.802Z,5.78
2022-10-17T16:30:53.319Z,5.78
2022-10-17T16:32:55.431Z,3.85
2022-10-17T16:34:56.908Z,11.88
2022-10-17T16:36:58.348Z,2.55
2022-10-17T16:38:59.830Z,3.40
2022-10-17T16:41:01.270Z,4.00
2022-10-17T16:43:02.746Z,5.00
2022-10-17T16:45:04.836Z,9.95
2022-10-17T16:47:06.302Z,9.75
2022-10-17T16:49:07.857Z,7.75
2022-10-17T16:51:10.161Z,5.13
2022-10-17T16:53:11.687Z,6.20
2022-10-17T16:55:13.384Z,4.68
2022-10-17T16:57:14.932Z,3.25
2022-10-17T16:59:16.458Z,13.38
2022-10-17T17:01:20.323Z,4.95
2022-10-17T17:03:21.873Z,3.90
2022-10-17T17:05:23.347Z,8.30
2022-10-17T17:07:24.833Z,4.68
2022-10-17T17:09:26.389Z,3.97
2022-10-17T17:11:28.484Z,3.72
2022-10-17T17:13:30.132Z,4.03
2022-10-17T17:15:31.631Z,6.45
2022-10-17T17:17:48.670Z,3.75
2022-10-17T17:19:52.919Z,7.22
2022-10-17T17:21:54.337Z,8.50
2022-10-17T17:23:58.774Z,8.77
2022-10-17T17:26:04.149Z,8.35
2022-10-17T17:28:06.825Z,7.55
2022-10-17T17:30:08.709Z,4.55
2022-10-17T17:32:10.658Z,5.18
2022-10-17T17:34:14.354Z,7.00
2022-10-17T17:36:22.330Z,8.10
2022-10-17T17:38:24.088Z,7.88
2022-10-17T17:40:25.609Z,7.47
2022-10-17T17:42:27.179Z,18.45
2022-10-17T17:44:28.772Z,6.93
2022-10-17T17:46:30.238Z,8.10
2022-10-17T17:48:31.718Z,9.60
2022-10-17T17:50:36.461Z,9.63
2022-10-17T17:52:39.995Z,5.55
2022-10-17T17:54:41.447Z,8.25
2022-10-17T17:56:42.996Z,10.43
2022-10-17T17:58:46.452Z,7.47
2022-10-17T18:00:47.902Z,9.27
2022-10-17T18:02:49.435Z,5.30
2022-10-17T18:04:51.077Z,6.53
2022-10-17T18:06:52.602Z,6.35
2022-10-17T18:08:56.803Z,9.88
2022-10-17T18:10:58.773Z,7.88
2022-10-17T18:13:00.350Z,7.15
2022-10-17T18:15:02.567Z,9.00
2022-10-17T18:17:04.059Z,3.47
2022-10-17T18:19:09.050Z,12.60
2022-10-17T18:21:12.843Z,6.28
2022-10-17T18:23:14.406Z,7.68
2022-10-17T18:25:15.935Z,7.00
2022-10-17T18:27:17.598Z,7.43
2022-10-17T18:29:19.101Z,4.90
2022-10-17T18:31:25.015Z,6.68
2022-10-17T18:33:26.453Z,12.55
2022-10-17T18:35:28.075Z,8.77
2022-10-17T18:37:29.585Z,12.40
2022-10-17T18:39:31.146Z,9.85
2022-10-17T18:41:33.347Z,9.73
2022-10-17T18:43:39.123Z,12.65
2022-10-17T18:45:40.554Z,10.10
2022-10-17T18:47:45.280Z,11.30
2022-10-17T18:49:48.223Z,7.75
2022-10-17T18:51:50.105Z,11.60
2022-10-17T18:53:54.346Z,11.25
2022-10-17T18:55:56.027Z,23.17
2022-10-17T18:57:57.474Z,24.30
2022-10-17T18:59:58.921Z,12.52
2022-10-17T19:02:00.536Z,13.30
2022-10-17T19:04:02.051Z,10.98
2022-10-17T19:06:07.175Z,18.08
2022-10-17T19:08:08.626Z,11.75
2022-10-17T19:10:10.062Z,10.00
2022-10-17T19:12:11.498Z,17.30
2022-10-17T19:14:13.652Z,14.15
2022-10-17T19:16:20.767Z,8.63
2022-10-17T19:18:22.266Z,12.98
2022-10-17T19:20:23.698Z,13.63
2022-10-17T19:22:25.229Z,9.80
2022-10-17T19:24:27.898Z,6.75
2022-10-17T19:26:31.557Z,12.23
2022-10-17T19:28:33.936Z,19.55
2022-10-17T19:30:35.587Z,8.02
2022-10-17T19:32:37.581Z,16.13
2022-10-17T19:34:39.119Z,10.18
2022-10-17T19:36:40.897Z,16.77
2022-10-17T19:38:42.567Z,16.20
2022-10-17T19:40:43.993Z,10.70
2022-10-17T19:42:45.531Z,11.57
2022-10-17T19:44:46.985Z,9.75
2022-10-17T19:46:49.277Z,14.52
2022-10-17T19:48:51.494Z,17.27
2022-10-17T19:50:53.305Z,11.23
2022-10-17T19:52:54.967Z,12.10
2022-10-17T19:54:56.431Z,9.75
2022-10-17T19:56:57.887Z,12.85
2022-10-17T19:58:59.607Z,7.25
2022-10-17T20:01:01.159Z,8.20
2022-10-17T20:03:02.640Z,11.23
2022-10-17T20:05:20.836Z,9.35
2022-10-17T20:07:24.067Z,10.27
2022-10-17T20:09:26.525Z,11.43
2022-10-17T20:11:28.915Z,9.57
2022-10-17T20:13:30.406Z,22.88
2022-10-17T20:15:32.175Z,9.57
2022-10-17T20:19:36.060Z,11.38
2022-10-17T20:21:39.563Z,10.50
2022-10-17T20:23:41.789Z,11.93
2022-10-17T20:25:43.743Z,10.98
2022-10-17T20:27:45.672Z,11.70
2022-10-17T20:29:47.240Z,6.65
2022-10-17T20:31:48.761Z,9.68
2022-10-17T20:34:00.117Z,13.63
2022-10-17T20:36:05.525Z,6.95
2022-10-17T20:38:07.005Z,12.48
2022-10-17T20:40:33.512Z,10.38
2022-10-17T20:42:30.859Z,5.88
2022-10-17T20:44:32.426Z,9.63
2022-10-17T20:46:39.762Z,9.20
2022-10-17T20:48:46.046Z,11.88
2022-10-17T20:50:47.722Z,10.35
2022-10-17T20:52:52.819Z,11.50
2022-10-17T20:54:57.988Z,7.63
2022-10-17T20:57:02.477Z,9.27
2022-10-17T20:59:10.313Z,11.38
2022-10-17T21:01:11.774Z,10.23
2022-10-17T21:03:13.316Z,9.38
2022-10-17T21:05:14.819Z,6.30
2022-10-17T21:07:16.258Z,7.75
2022-10-17T21:09:17.996Z,7.70
2022-10-17T21:11:25.266Z,19.60
2022-10-17T21:13:26.711Z,8.48
2022-10-17T21:15:28.124Z,17.65
2022-10-17T21:17:29.662Z,5.93
2022-10-17T21:19:31.115Z,10.32
2022-10-17T21:21:35.142Z,9.13
2022-10-17T21:23:36.634Z,6.60
2022-10-17T21:25:40.697Z,7.63
2022-10-17T21:27:42.477Z,9.52
2022-10-17T21:29:43.939Z,7.53
2022-10-17T21:31:45.556Z,8.90
2022-10-17T21:33:49.548Z,9.38
2022-10-17T21:35:54.834Z,10.02
2022-10-17T21:37:56.325Z,11.73
2022-10-17T21:39:57.786Z,5.40
2022-10-17T21:41:59.266Z,6.60
2022-10-17T21:44:03.598Z,13.52
2022-10-17T21:46:07.470Z,9.38
2022-10-17T21:48:13.109Z,9.77
2022-10-17T21:50:15.139Z,7.20
2022-10-17T21:52:16.606Z,5.75
2022-10-17T21:54:19.155Z,13.02
2022-10-17T21:56:25.443Z,8.68
2022-10-17T21:58:30.332Z,16.48
2022-10-17T22:00:31.810Z,9.55
2022-10-17T22:02:33.611Z,7.57
2022-10-17T22:04:35.202Z,5.78
2022-10-17T22:06:40.839Z,8.18
2022-10-17T22:08:42.653Z,10.52
2022-10-17T22:10:44.085Z,10.05
2022-10-17T22:12:45.537Z,11.10
2022-10-17T22:14:47.124Z,7.28
2022-10-17T22:16:49.730Z,10.15
2022-10-17T22:18:51.305Z,8.18
2022-10-17T22:20:52.800Z,7.10
2022-10-17T22:22:54.325Z,13.95
2022-10-17T22:24:55.819Z,7.70
2022-10-17T22:26:57.353Z,5.55
2022-10-17T22:28:59.728Z,10.02
2022-10-17T22:31:01.366Z,5.68
2022-10-17T22:33:02.872Z,5.45
2022-10-17T22:35:04.869Z,11.50
2022-10-17T22:37:06.394Z,6.43
2022-10-17T22:39:08.135Z,17.05
2022-10-17T22:41:09.678Z,9.95
2022-10-17T22:43:12.011Z,5.82
2022-10-17T22:45:13.553Z,8.93
2022-10-17T22:47:15.091Z,14.25
2022-10-17T22:49:16.756Z,9.23
2022-10-17T22:51:18.367Z,5.90
2022-10-17T22:53:24.942Z,5.65
2022-10-17T22:55:26.844Z,4.90
2022-10-17T22:57:28.339Z,9.68
2022-10-17T22:59:29.826Z,10.30
2022-10-17T23:01:31.434Z,7.07
2022-10-17T23:03:33.421Z,13.05
2022-10-17T23:05:34.868Z,9.80
2022-10-17T23:07:36.421Z,6.10
2022-10-17T23:09:38.738Z,5.05
2022-10-17T23:11:40.184Z,8.70
2022-10-17T23:13:41.705Z,4.97
2022-10-17T23:15:43.479Z,6.93
2022-10-17T23:17:44.963Z,6.35
2022-10-17T23:19:46.424Z,8.60
2022-10-17T23:21:47.866Z,6.07
2022-10-17T23:23:49.433Z,8.00
2022-10-17T23:25:51.503Z,5.43
2022-10-17T23:27:53.123Z,4.90
2022-10-17T23:29:55.220Z,12.80
2022-10-17T23:31:56.774Z,11.13
2022-10-17T23:33:58.573Z,6.63
2022-10-17T23:36:04.254Z,5.68
2022-10-17T23:38:05.717Z,8.68
2022-10-17T23:40:07.871Z,10.57
2022-10-17T23:42:09.340Z,17.48
2022-10-17T23:44:11.499Z,10.40
2022-10-17T23:46:13.067Z,13.93
2022-10-17T23:48:14.561Z,6.80
2022-10-17T23:50:16.421Z,11.13
2022-10-17T23:52:17.971Z,8.93
2022-10-17T23:54:19.443Z,11.15
2022-10-17T23:56:20.905Z,7.00
2022-10-17T23:58:22.535Z,11.48
